M I D A S
Marine Information and Data Acquisition System
Tripno 728 of the Zeeleeuw from 2004-06-03 06:30:24 to 2004-06-03 12:07:08
Back to CruiseResearch ActivitiesStationsMapUnderway DataData graphs

EquipmentUnitsComment
TimeDGPSUTC
LatitudeDGPSDM.mWGS84
LongitudeDGPSDM.mWGS84
TemperatureSBE03/SBE38deg celciusITS90
ConductivitySBE21S/mITS90
SalinitySBE21 Practical Salinity Units
ChlorophylAChelsea fluorimeterg/lCalibrated in Aceton
Missing or incorrect values are displayed as -999
Sea surface data collected by the RV Zeeleeuw from 2004-06-03 06:30:24 to 2004-06-03 12:07:08
Time Latitude Longitude Temperature Conductivity Salinity ChlorophylA
2004-06-03 06:31:29 51°13.638 2°55.941 21.337551 0.12743 0.65315 8.927059
2004-06-03 06:32:30 51°13.675 2°55.81 21.346246 0.127534 0.653763 8.927059
2004-06-03 06:33:29 51°13.69 2°55.754 21.463785 0.127326 0.652708 8.927059
2004-06-03 06:34:29 51°13.699 2°55.768 21.364943 0.12743 0.653321 8.927059
2004-06-03 06:35:30 51°13.698 2°55.745 18.580248 0.493217 2.736552 24.837896
2004-06-03 06:36:29 51°13.778 2°55.676 16.914622 3.264995 24.268039 30.80446
2004-06-03 06:37:28 51°13.898 2°55.596 16.796333 3.208238 24.010296 31.782033
2004-06-03 06:38:29 51°14.033 2°55.51 16.694816 3.234355 24.318877 31.512358
2004-06-03 06:39:29 51°14.169 2°55.388 16.69698 3.393917 25.69268 29.11899
2004-06-03 06:40:29 51°14.296 2°55.192 16.650881 3.443848 26.133811 30.568494
2004-06-03 06:41:29 51°14.427 2°54.955 16.566115 3.551202 27.071456 29.826888
2004-06-03 06:42:29 51°14.47 2°54.635 16.199201 3.561846 27.295478 15.60152
2004-06-03 06:43:29 51°14.427 2°54.412 16.032467 3.975303 31.08273 12.466546
2004-06-03 06:44:29 51°14.391 2°54.284 15.993207 4.003031 31.409859 11.522683
2004-06-03 06:45:29 51°14.37 2°54.187 15.944056 4.00651 31.466763 11.421554
2004-06-03 06:46:29 51°14.352 2°54.108 15.947489 4.002504 31.454667 11.320426
2004-06-03 06:47:29 51°14.333 2°54.017 15.922258 4.008198 31.516339 11.724939
2004-06-03 06:48:29 51°14.243 2°53.77 15.912472 4.007565 31.524387 12.635093
2004-06-03 06:49:29 51°14.121 2°53.472 15.886197 4.00493 31.508374 12.837349
2004-06-03 06:50:29 51°13.991 2°53.151 15.847411 4.003032 31.511835 12.938477
2004-06-03 06:51:29 51°13.868 2°52.916 15.838946 4.003876 31.548849 14.286853
2004-06-03 06:52:28 51°13.829 2°52.818 15.836798 4.003244 31.54863 14.792494
2004-06-03 06:53:29 51°13.808 2°52.781 15.839247 4.002084 31.543782 15.500392
2004-06-03 06:54:29 51°13.785 2°52.726 15.838388 4.00219 31.544115 17.051024
2004-06-03 06:55:29 51°13.766 2°52.721 15.83538 4.002506 31.549265 17.152153
2004-06-03 06:56:29 51°13.747 2°52.709 15.835509 4.001979 31.546414 18.298272
2004-06-03 06:57:29 51°13.726 2°52.687 15.834993 4.001241 31.542304 18.43311
2004-06-03 06:58:29 51°13.702 2°52.652 15.836497 4.001136 31.540192 18.43311
2004-06-03 06:59:28 51°13.673 2°52.59 15.846552 4.000608 31.534968 17.961178
2004-06-03 07:00:28 51°13.641 2°52.509 15.849903 4.000925 31.530039 16.646512
2004-06-03 07:01:28 51°13.607 2°52.428 15.851707 3.999765 31.51867 16.815059
2004-06-03 07:02:31 51°13.574 2°52.349 15.851836 3.998711 31.505859 16.71393
2004-06-03 07:03:32 51°13.545 2°52.278 15.847024 3.998394 31.503082 16.983606
2004-06-03 07:04:31 51°13.523 2°52.215 15.845263 3.998605 31.510855 17.624084
2004-06-03 07:05:30 51°13.501 2°52.156 15.841568 3.998711 31.516521 18.028597
2004-06-03 07:06:32 51°13.476 2°52.098 15.839333 3.998816 31.517447 18.062306
2004-06-03 07:07:30 51°13.454 2°52.047 15.836196 3.998816 31.521003 18.331982
2004-06-03 07:08:32 51°13.429 2°51.995 15.835809 3.999133 31.52556 18.635366
2004-06-03 07:09:32 51°13.406 2°51.946 15.8322 3.999133 31.527931 18.500529
2004-06-03 07:10:32 51°13.382 2°51.897 15.832329 3.999133 31.530303 17.590375
2004-06-03 07:11:32 51°13.357 2°51.849 15.829063 3.998922 31.529044 17.86005
2004-06-03 07:12:32 51°13.333 2°51.8 15.831211 3.999133 31.532083 17.590375
2004-06-03 07:13:30 51°13.311 2°51.754 15.834005 3.998711 31.526005 18.129725
2004-06-03 07:14:32 51°13.288 2°51.704 15.833833 3.998395 31.521448 17.826341
2004-06-03 07:15:32 51°13.267 2°51.657 15.840794 3.998184 31.519596 18.129725
2004-06-03 07:16:32 51°13.245 2°51.611 15.842126 3.997867 31.513854 18.298272
2004-06-03 07:17:32 51°13.223 2°51.564 15.840064 3.997446 31.510149 18.837623
2004-06-03 07:18:32 51°13.202 2°51.517 15.842427 3.997551 31.508705 18.837623
2004-06-03 07:19:32 51°13.182 2°51.468 15.844532 3.988379 31.426386 19.309554
2004-06-03 07:20:32 51°13.125 2°51.244 15.844403 3.98975 31.437828 19.343264
2004-06-03 07:21:32 51°13.01 2°50.904 15.854285 3.979207 31.340572 19.882614
2004-06-03 07:22:32 51°12.888 2°50.553 15.855015 3.986587 31.407699 21.905178
2004-06-03 07:23:32 51°12.771 2°50.197 15.866442 3.978153 31.321901 23.017589
2004-06-03 07:24:32 51°12.65 2°49.842 15.870565 3.974147 31.282061 22.781623
2004-06-03 07:25:32 51°12.537 2°49.481 15.874001 3.966557 31.209647 22.849042
2004-06-03 07:26:32 51°12.421 2°49.114 15.85712 3.978786 31.323919 19.309554
2004-06-03 07:27:32 51°12.3 2°48.753 15.86249 3.986692 31.39682 18.635366
2004-06-03 07:28:32 51°12.181 2°48.389 15.87297 3.984162 31.370493 20.759059
2004-06-03 07:29:32 51°12.06 2°48.026 15.881989 3.986481 31.383765 20.287127
2004-06-03 07:30:32 51°11.943 2°47.659 15.880787 3.991331 31.420406 19.781486
2004-06-03 07:31:36 51°11.815 2°47.271 15.889031 3.992912 31.431917 17.624084
2004-06-03 07:32:37 51°11.694 2°46.902 15.887786 3.988062 31.390562 18.669076
2004-06-03 07:33:37 51°11.575 2°46.541 15.879756 3.982475 31.336269 20.826477
2004-06-03 07:34:37 51°11.462 2°46.176 15.880142 3.983424 31.341645 19.612939
2004-06-03 07:35:37 51°11.346 2°45.813 15.872068 3.985849 31.369379 18.197144
2004-06-03 07:36:37 51°11.234 2°45.447 15.867473 4.01716 31.650658 18.871332
2004-06-03 07:37:37 51°11.126 2°45.081 15.877995 4.025489 31.732755 19.107298
2004-06-03 07:38:37 51°11.008 2°44.727 15.871897 4.031498 31.781387 16.579093
2004-06-03 07:39:37 51°10.932 2°44.343 15.850075 4.033185 31.79681 16.107161
2004-06-03 07:40:36 51°10.85 2°43.969 15.848657 4.035294 31.824313 19.275845
2004-06-03 07:41:37 51°10.762 2°43.583 15.8737 4.038456 31.856914 18.905042
2004-06-03 07:42:37 51°10.685 2°43.203 15.827172 4.046785 31.935582 17.185862
2004-06-03 07:43:37 51°10.606 2°42.825 15.813976 4.052374 32.003413 15.500392
2004-06-03 07:44:37 51°10.52 2°42.447 15.794587 4.06007 32.076635 15.129589
2004-06-03 07:45:37 51°10.439 2°42.066 15.784696 4.063761 32.130924 16.545383
2004-06-03 07:46:37 51°10.35 2°41.686 15.79592 4.063339 32.130836 16.241999
2004-06-03 07:47:37 51°10.27 2°41.304 15.779364 4.06724 32.167666 16.107161
2004-06-03 07:48:37 51°10.184 2°40.926 15.76461 4.071036 32.211468 15.264426
2004-06-03 07:49:37 51°10.102 2°40.546 15.754242 4.074621 32.254051 14.48911
2004-06-03 07:50:37 51°10.02 2°40.168 15.74895 4.077151 32.282482 14.152016
2004-06-03 07:51:37 51°9.937 2°39.791 15.737375 4.07926 32.30903 14.050888
2004-06-03 07:52:37 51°9.855 2°39.413 15.737805 4.079998 32.320429 14.4554
2004-06-03 07:53:36 51°9.817 2°39.029 15.740215 4.081369 32.333151 14.961042
2004-06-03 07:54:37 51°9.85 2°38.628 15.73178 4.087062 32.386529 13.3767
2004-06-03 07:55:36 51°9.88 2°38.24 15.710215 4.094232 32.459109 13.444118
2004-06-03 07:56:38 51°9.91 2°37.83 15.697557 4.100242 32.523944 12.736221
2004-06-03 07:57:38 51°9.821 2°37.465 15.701346 4.114371 32.655197 12.432836
2004-06-03 07:58:37 51°9.662 2°37.148 15.686403 4.126075 32.764458 12.331708
2004-06-03 07:59:38 51°9.498 2°36.821 15.684078 4.125548 32.764121 12.196871
2004-06-03 08:00:38 51°9.391 2°36.453 15.677747 4.13082 32.816441 12.062033
2004-06-03 08:01:36 51°9.394 2°36.066 15.664651 4.133772 32.843243 12.028324
2004-06-03 08:02:37 51°9.511 2°35.725 15.640393 4.142208 32.934259 12.163161
2004-06-03 08:03:38 51°9.682 2°35.461 15.605347 4.152015 33.051963 12.399127
2004-06-03 08:04:37 51°9.866 2°35.253 15.549875 4.157393 33.123609 12.601383
2004-06-03 08:05:37 51°10.076 2°35.225 15.420379 4.185759 33.491716 13.073315
2004-06-03 08:06:38 51°10.28 2°35.307 15.364756 4.187236 33.536201 13.410409
2004-06-03 08:07:37 51°10.462 2°35.453 15.338746 4.177958 33.517086 13.444118
2004-06-03 08:08:37 51°10.632 2°35.637 15.336538 4.164355 33.399691 13.612665
2004-06-03 08:09:37 51°10.802 2°35.823 15.332642 4.155603 33.32131 13.814922
2004-06-03 08:10:38 51°10.978 2°36.014 15.337144 4.150226 33.276976 14.118306
2004-06-03 08:11:37 51°11.145 2°36.2 15.338659 4.148961 33.266283 14.185725
2004-06-03 08:12:42 51°11.33 2°36.404 15.382192 4.140525 33.171761 14.050888
2004-06-03 08:13:41 51°11.496 2°36.588 15.400272 4.130929 33.057552 14.050888
2004-06-03 08:14:42 51°11.668 2°36.778 15.410391 4.121229 32.961479 14.185725
2004-06-03 08:15:41 51°11.835 2°36.962 15.419169 4.118382 32.930415 14.286853
2004-06-03 08:16:43 51°12.013 2°37.145 15.4496 4.117327 32.904072 14.421691
2004-06-03 08:17:43 51°12.188 2°37.313 15.449773 4.114269 32.860526 14.522819
2004-06-03 08:18:43 51°12.364 2°37.481 15.452193 4.109946 32.818244 14.792494
2004-06-03 08:19:45 51°12.545 2°37.656 15.436504 4.100562 32.742734 15.466683
2004-06-03 08:20:45 51°12.721 2°37.825 15.414542 4.090968 32.672183 15.803777
2004-06-03 08:21:48 51°12.905 2°38.001 15.39465 4.083271 32.618516 15.500392
2004-06-03 08:22:49 51°13.084 2°38.174 15.361208 4.074099 32.560355 14.725076
2004-06-03 08:23:49 51°13.262 2°38.346 15.33472 4.065137 32.51085 14.421691
2004-06-03 08:24:53 51°13.452 2°38.529 15.345411 4.064505 32.509551 14.219435
2004-06-03 08:25:57 51°13.642 2°38.714 15.364626 4.068722 32.531653 13.91605
2004-06-03 08:27:03 51°13.839 2°38.905 15.374967 4.074415 32.571873 13.814922
2004-06-03 08:28:02 51°14.015 2°39.077 15.365448 4.075891 32.58566 13.882341
2004-06-03 08:29:03 51°14.215 2°39.159 15.335672 4.070725 32.556356 14.118306
2004-06-03 08:30:03 51°14.41 2°39.013 15.261737 4.064611 32.535967 14.017178
2004-06-03 08:31:01 51°14.51 2°38.699 15.132863 4.060816 32.561833 13.241862
2004-06-03 08:32:02 51°14.477 2°38.308 14.960272 4.059553 32.703426 13.174443
2004-06-03 08:33:01 51°14.391 2°37.935 14.925178 4.056602 32.755774 13.174443
2004-06-03 08:34:01 51°14.304 2°37.555 14.923958 4.058817 32.792189 13.208153
2004-06-03 08:35:02 51°14.219 2°37.166 14.937328 4.062401 32.822599 13.107024
2004-06-03 08:36:02 51°14.139 2°36.784 14.957399 4.064299 32.831459 13.073315
2004-06-03 08:37:02 51°14.063 2°36.405 15.007876 4.067462 32.834595 13.107024
2004-06-03 08:38:02 51°13.979 2°36.035 15.055229 4.071994 32.827912 13.174443
2004-06-03 08:39:05 51°13.818 2°35.708 15.081827 4.075368 32.828532 12.938477
2004-06-03 08:40:11 51°13.646 2°35.368 15.110629 4.078847 32.83642 13.005896
2004-06-03 08:41:11 51°13.494 2°35.059 15.145323 4.083486 32.85661 12.972187
2004-06-03 08:42:09 51°13.341 2°34.762 15.167806 4.089495 32.885295 13.005896
2004-06-03 08:43:10 51°13.181 2°34.449 15.194576 4.095399 32.914269 13.107024
2004-06-03 08:44:12 51°13.014 2°34.127 15.225368 4.100143 32.936606 13.073315
2004-06-03 08:45:17 51°12.843 2°33.789 15.263557 4.107629 32.969597 13.107024
2004-06-03 08:46:17 51°12.685 2°33.481 15.294708 4.113533 32.999117 13.174443
2004-06-03 08:47:15 51°12.575 2°33.145 15.342858 4.117117 32.985777 13.410409
2004-06-03 08:48:21 51°12.462 2°32.753 15.337144 4.119648 32.997061 13.545247
2004-06-03 08:49:22 51°12.359 2°32.384 15.314024 4.126607 33.068763 13.713794
2004-06-03 08:50:25 51°12.258 2°32.004 15.217824 4.136414 33.225074 13.545247
2004-06-03 08:51:24 51°12.162 2°31.643 15.2085 4.136625 33.262007 13.511537
2004-06-03 08:52:32 51°12.062 2°31.219 15.190976 4.137785 33.273058 13.545247
2004-06-03 08:53:36 51°11.968 2°30.817 15.182559 4.137996 33.282611 13.444118
2004-06-03 08:54:36 51°11.85 2°30.457 15.193709 4.137047 33.278557 13.444118
2004-06-03 08:55:36 51°11.722 2°30.106 15.201733 4.137891 33.28805 13.477828
2004-06-03 08:56:35 51°11.598 2°29.757 15.185292 4.139367 33.308979 13.511537
2004-06-03 08:57:40 51°11.547 2°29.329 15.160949 4.139895 33.320111 13.511537
2004-06-03 08:58:41 51°11.517 2°28.922 15.172319 4.139262 33.319542 13.34299
2004-06-03 08:59:41 51°11.477 2°28.521 15.122876 4.139579 33.346717 13.309281
2004-06-03 09:00:41 51°11.355 2°28.16 15.091429 4.137575 33.306297 13.241862
2004-06-03 09:01:41 51°11.207 2°27.819 15.041883 4.138209 33.38379 13.174443
2004-06-03 09:02:41 51°11.062 2°27.48 14.966278 4.138104 33.453044 13.140734
2004-06-03 09:03:41 51°10.926 2°27.132 14.921737 4.138422 33.516708 12.972187
2004-06-03 09:04:41 51°10.823 2°26.763 14.807267 4.139899 33.588529 12.871059
2004-06-03 09:05:41 51°10.721 2°26.395 14.758779 4.140849 33.663679 12.668802
2004-06-03 09:06:41 51°10.625 2°26.022 14.737951 4.140744 33.676459 12.635093
2004-06-03 09:07:41 51°10.572 2°25.639 14.706936 4.143275 33.730257 12.500255
2004-06-03 09:08:41 51°10.675 2°25.317 14.639485 4.144857 33.778813 12.432836
2004-06-03 09:09:41 51°10.883 2°25.221 14.532597 4.150341 33.904027 12.062033
2004-06-03 09:10:41 51°11.106 2°25.206 14.467119 4.15572 34.040878 11.623811
2004-06-03 09:11:41 51°11.324 2°25.218 14.455148 4.15319 34.052409 11.455264
2004-06-03 09:12:41 51°11.536 2°25.282 14.466374 4.150976 34.022786 11.522683
2004-06-03 09:13:41 51°11.746 2°25.351 14.461112 4.148656 33.990217 11.556392
2004-06-03 09:14:41 51°11.953 2°25.427 14.506264 4.145281 33.960003 11.69123
2004-06-03 09:15:41 51°12.159 2°25.5 14.561765 4.143699 33.897704 11.859777
2004-06-03 09:16:41 51°12.363 2°25.576 14.611619 4.142644 33.852969 11.893486
2004-06-03 09:17:41 51°12.566 2°25.658 14.629162 4.140746 33.798004 12.062033
2004-06-03 09:18:41 51°12.76 2°25.769 14.614682 4.138636 33.763625 12.196871
2004-06-03 09:19:40 51°12.908 2°25.986 14.592365 4.135685 33.786816 12.264289
2004-06-03 09:20:40 51°13.053 2°26.22 14.631568 4.133575 33.728697 12.297999
2004-06-03 09:21:41 51°13.201 2°26.461 14.665721 4.131994 33.703106 12.331708
2004-06-03 09:22:41 51°13.344 2°26.7 14.685742 4.129779 33.656024 12.432836
2004-06-03 09:23:41 51°13.487 2°26.942 14.678749 4.128092 33.626257 12.432836
2004-06-03 09:24:41 51°13.628 2°27.186 14.673547 4.127143 33.616315 12.466546
2004-06-03 09:25:41 51°13.77 2°27.433 14.706324 4.128619 33.629742 12.365418
2004-06-03 09:26:41 51°13.913 2°27.679 14.700732 4.131149 33.640315 12.365418
2004-06-03 09:27:41 51°14.054 2°27.924 14.692254 4.131571 33.663156 12.23058
2004-06-03 09:28:41 51°14.196 2°28.173 14.722707 4.126826 33.602314 12.23058
2004-06-03 09:29:41 51°14.339 2°28.422 14.763189 4.121765 33.523021 12.297999
2004-06-03 09:30:40 51°14.479 2°28.667 14.795792 4.116914 33.447114 12.466546
2004-06-03 09:31:41 51°14.627 2°28.92 14.812502 4.114278 33.406337 12.702512
2004-06-03 09:32:41 51°14.778 2°29.162 14.827333 4.11122 33.363078 12.837349
2004-06-03 09:33:41 51°14.935 2°29.399 14.832131 4.110165 33.347057 12.871059
2004-06-03 09:34:41 51°15.091 2°29.636 14.828293 4.108373 33.329529 12.837349
2004-06-03 09:35:41 51°15.249 2°29.874 14.838977 4.105631 33.302119 12.668802
2004-06-03 09:36:41 51°15.407 2°30.111 14.837625 4.10426 33.285836 12.736221
2004-06-03 09:37:41 51°15.567 2°30.35 14.833962 4.101097 33.257845 12.635093
2004-06-03 09:38:41 51°15.728 2°30.588 14.836535 4.098567 33.236872 12.668802
2004-06-03 09:39:41 51°15.89 2°30.83 14.826068 4.096458 33.219717 12.702512
2004-06-03 09:40:41 51°16.051 2°31.072 14.824236 4.096564 33.22196 12.668802
2004-06-03 09:41:41 51°16.213 2°31.315 14.82428 4.09804 33.23919 12.635093
2004-06-03 09:42:41 51°16.37 2°31.562 14.806438 4.10057 33.265973 12.533965
2004-06-03 09:43:41 51°16.527 2°31.806 14.69339 4.109323 33.416555 12.432836
2004-06-03 09:44:41 51°16.685 2°32.05 14.690287 4.106898 33.432903 12.500255
2004-06-03 09:45:41 51°16.842 2°32.295 14.687009 4.103313 33.399024 12.533965
2004-06-03 09:46:41 51°16.999 2°32.539 14.702086 4.099307 33.361969 12.601383
2004-06-03 09:47:41 51°17.157 2°32.784 14.70663 4.095827 33.323872 12.736221
2004-06-03 09:48:40 51°17.312 2°33.026 14.698547 4.093929 33.296914 12.837349
2004-06-03 09:49:41 51°17.473 2°33.278 14.690812 4.091294 33.286588 12.871059
2004-06-03 09:50:41 51°17.632 2°33.524 14.70095 4.090344 33.270198 12.871059
2004-06-03 09:51:40 51°17.79 2°33.767 14.673372 4.08792 33.256597 12.938477
2004-06-03 09:52:40 51°17.951 2°34.016 14.611313 4.081489 33.235734 12.871059
2004-06-03 09:53:41 51°18.122 2°34.259 14.559882 4.073371 33.215708 12.904768
2004-06-03 09:54:41 51°18.3 2°34.476 14.502013 4.068627 33.217301 12.601383
2004-06-03 09:55:41 51°18.478 2°34.696 14.476283 4.066941 33.233136 12.567674
2004-06-03 09:56:41 51°18.662 2°34.905 14.4562 4.066519 33.259903 12.533965
2004-06-03 09:57:41 51°18.849 2°35.097 14.430628 4.067469 33.279655 12.331708
2004-06-03 09:58:40 51°19.038 2°35.274 14.415052 4.067152 33.293743 12.196871
2004-06-03 09:59:40 51°19.23 2°35.453 14.417729 4.067785 33.309327 12.196871
2004-06-03 10:00:40 51°19.424 2°35.631 14.385469 4.06768 33.320137 12.129452
2004-06-03 10:01:41 51°19.629 2°35.779 14.393502 4.066626 33.317695 12.095742
2004-06-03 10:02:40 51°19.83 2°35.91 14.40092 4.065255 33.295353 12.129452
2004-06-03 10:03:41 51°20.031 2°36.068 14.396443 4.06283 33.277763 12.23058
2004-06-03 10:04:42 51°20.203 2°36.295 14.396312 4.061248 33.254818 12.163161
2004-06-03 10:05:41 51°20.287 2°36.621 14.401271 4.058402 33.230764 12.23058
2004-06-03 10:06:41 51°20.351 2°36.971 14.409566 4.054712 33.203567 12.23058
2004-06-03 10:07:41 51°20.398 2°37.33 14.419879 4.053446 33.175069 12.23058
2004-06-03 10:08:41 51°20.422 2°37.699 14.428347 4.051549 33.152533 12.331708
2004-06-03 10:09:41 51°20.415 2°38.072 14.436419 4.051548 33.138879 12.297999
2004-06-03 10:10:41 51°20.402 2°38.445 14.459928 4.049967 33.1186 12.331708
2004-06-03 10:11:41 51°20.393 2°38.818 14.521907 4.05081 33.089965 12.264289
2004-06-03 10:12:37 51°20.385 2°39.166 14.552306 4.050387 33.051174 12.500255
2004-06-03 10:13:41 51°20.378 2°39.568 14.56715 4.050809 33.034985 12.668802
2004-06-03 10:14:41 51°20.372 2°39.94 14.615294 4.054288 33.038881 12.702512
2004-06-03 10:15:41 51°20.368 2°40.313 14.64517 4.057766 33.046 12.668802
2004-06-03 10:16:41 51°20.366 2°40.688 14.655097 4.059769 33.029411 12.668802
2004-06-03 10:17:41 51°20.367 2°41.067 14.639922 4.05998 33.038406 12.635093
2004-06-03 10:18:41 51°20.365 2°41.448 14.622557 4.056923 33.029315 12.702512
2004-06-03 10:19:41 51°20.363 2°41.83 14.62715 4.05492 33.011762 12.736221
2004-06-03 10:20:41 51°20.36 2°42.216 14.639616 4.053971 32.997994 12.702512
2004-06-03 10:21:40 51°20.357 2°42.594 14.662136 4.054392 32.982531 12.76993
2004-06-03 10:22:41 51°20.355 2°42.984 14.70213 4.052178 32.954088 12.871059
2004-06-03 10:23:41 51°20.353 2°43.363 14.769169 4.053021 32.907261 12.904768
2004-06-03 10:24:41 51°20.352 2°43.742 14.780867 4.052598 32.870213 12.938477
2004-06-03 10:25:41 51°20.353 2°44.117 14.949824 4.050172 32.752257 13.073315
2004-06-03 10:26:41 51°20.356 2°44.492 15.115884 4.047535 32.674111 13.208153
2004-06-03 10:27:41 51°20.361 2°44.868 15.263557 4.04342 32.423049 13.34299
2004-06-03 10:28:41 51°20.349 2°45.246 15.249125 4.042154 32.380709 13.545247
2004-06-03 10:29:41 51°20.294 2°45.614 15.2571 4.038992 32.35617 13.848631
2004-06-03 10:30:40 51°20.239 2°45.981 15.236988 4.036988 32.328372 13.91605
2004-06-03 10:31:40 51°20.184 2°46.362 15.213357 4.032455 32.32563 13.983469
2004-06-03 10:32:40 51°20.142 2°46.75 15.251379 4.031823 32.300168 13.983469
2004-06-03 10:33:41 51°20.097 2°47.142 15.213617 4.030663 32.288571 14.219435
2004-06-03 10:34:40 51°20.037 2°47.511 15.285785 4.026235 32.25705 14.354272
2004-06-03 10:35:40 51°19.966 2°47.883 15.284442 4.023704 32.185751 14.421691
2004-06-03 10:36:41 51°19.847 2°48.221 15.418434 4.019276 32.121084 14.590238
2004-06-03 10:37:47 51°19.693 2°48.552 15.653148 4.016215 31.886876 15.095879
2004-06-03 10:38:46 51°19.55 2°48.849 15.601811 4.01516 31.846157 15.230717
2004-06-03 10:39:46 51°19.412 2°49.157 15.61854 4.014 31.837109 15.264426
2004-06-03 10:40:46 51°19.27 2°49.471 15.584432 4.012946 31.830199 15.399264
2004-06-03 10:41:46 51°19.122 2°49.775 15.648839 4.008308 31.796414 15.567811
2004-06-03 10:42:47 51°18.96 2°50.072 15.696308 4.005566 31.716321 16.309418
2004-06-03 10:43:47 51°18.805 2°50.37 15.716716 4.001559 31.646877 16.612802
2004-06-03 10:44:47 51°18.65 2°50.665 15.669649 3.99555 31.613611 17.017315
2004-06-03 10:45:47 51°18.493 2°50.959 15.653105 3.986062 31.553211 17.084734
2004-06-03 10:46:46 51°18.328 2°51.229 15.576668 3.975099 31.49165 17.590375
2004-06-03 10:47:46 51°18.161 2°51.505 15.560576 3.970145 31.4801 17.927469
2004-06-03 10:48:46 51°17.974 2°51.736 15.501527 3.968353 31.473812 18.736494
2004-06-03 10:49:47 51°17.778 2°51.955 15.517114 3.961185 31.444458 18.534238
2004-06-03 10:50:47 51°17.582 2°52.161 15.564287 3.960236 31.42235 18.298272
2004-06-03 10:51:47 51°17.378 2°52.347 15.676842 3.970355 31.452161 18.028597
2004-06-03 10:52:47 51°17.179 2°52.543 15.757512 3.984269 31.493349 17.826341
2004-06-03 10:53:47 51°16.977 2°52.735 15.708794 3.98933 31.532567 18.062306
2004-06-03 10:54:46 51°16.781 2°52.925 15.749897 3.986694 31.504003 18.264563
2004-06-03 10:55:44 51°16.588 2°53.115 15.734922 3.982161 31.452223 18.466819
2004-06-03 10:56:46 51°16.384 2°53.322 15.660343 3.965294 31.333968 18.871332
2004-06-03 10:57:46 51°16.187 2°53.52 15.658146 3.95275 31.266652 19.107298
2004-06-03 10:58:47 51°15.981 2°53.701 15.735266 3.955912 31.254339 19.54552
2004-06-03 10:59:46 51°15.773 2°53.826 15.680546 3.959179 31.278377 20.421965
2004-06-03 11:00:45 51°15.556 2°53.888 15.715639 3.960655 31.278377 20.961315
2004-06-03 11:01:45 51°15.333 2°53.928 15.696696 3.958968 31.264719 21.534375
2004-06-03 11:02:46 51°15.106 2°53.951 15.71353 3.96171 31.303599 22.275982
2004-06-03 11:03:46 51°14.884 2°53.963 15.746111 3.981739 31.44199 21.736631
2004-06-03 11:04:47 51°14.662 2°53.975 15.751962 3.97573 31.422896 21.399537
2004-06-03 11:05:47 51°14.532 2°54.021 15.931956 3.999449 31.514708 20.792768
2004-06-03 11:06:51 51°14.489 2°54.069 15.940109 4.022747 31.650395 19.208426
2004-06-03 11:07:56 51°14.492 2°54.097 15.914274 4.025699 31.693519 19.00617
2004-06-03 11:08:57 51°14.499 2°54.122 15.914575 4.02591 31.698938 19.073589
2004-06-03 11:09:57 51°14.508 2°54.145 15.926292 4.02591 31.699533 19.039879
2004-06-03 11:10:57 51°14.519 2°54.172 15.917322 4.025593 31.696757 19.174717
2004-06-03 11:11:57 51°14.531 2°54.202 15.9326 4.026015 31.69689 19.174717
2004-06-03 11:12:58 51°14.544 2°54.235 15.943928 4.028229 31.700857 19.107298
2004-06-03 11:14:01 51°14.558 2°54.272 15.949205 4.028334 31.701187 19.275845
2004-06-03 11:15:02 51°14.571 2°54.31 15.951007 4.028545 31.698282 19.275845
2004-06-03 11:16:02 51°14.584 2°54.349 15.96113 4.028967 31.700792 19.343264
2004-06-03 11:17:02 51°14.597 2°54.389 15.957827 4.02981 31.69987 19.410683
2004-06-03 11:18:07 51°14.611 2°54.434 15.958728 4.030548 31.701588 19.612939
2004-06-03 11:19:07 51°14.623 2°54.477 15.971509 4.030759 31.700467 19.511811
2004-06-03 11:20:07 51°14.635 2°54.521 15.975927 4.031075 31.699082 19.54552
2004-06-03 11:21:07 51°14.649 2°54.558 15.970823 4.031707 31.701658 19.54552
2004-06-03 11:22:07 51°14.631 2°54.386 15.973868 4.031602 31.703109 19.747777
2004-06-03 11:23:06 51°14.554 2°54.225 15.917236 4.028229 31.705613 20.489383
2004-06-03 11:24:07 51°14.509 2°54.193 15.902942 4.026964 31.704622 20.320836
2004-06-03 11:25:07 51°14.486 2°54.192 15.889632 4.024328 31.69636 20.590512
2004-06-03 11:26:07 51°14.48 2°54.195 15.89427 4.022853 31.689945 20.69164
2004-06-03 11:27:05 51°14.483 2°54.202 15.905904 4.023169 31.690342 21.163571
2004-06-03 11:28:09 51°14.494 2°54.216 15.923073 4.024645 31.687834 21.332118
2004-06-03 11:29:17 51°14.51 2°54.246 15.944142 4.026753 31.69088 21.2647
2004-06-03 11:30:17 51°14.521 2°54.321 15.939294 4.02728 31.691939 21.736631
2004-06-03 11:31:17 51°14.532 2°54.374 15.922129 4.026437 31.6887 22.815332
2004-06-03 11:32:15 51°14.538 2°54.369 15.940924 4.025488 31.687507 23.085007
2004-06-03 11:33:17 51°14.55 2°54.346 15.961945 4.027702 31.686131 22.646785
2004-06-03 11:34:22 51°14.567 2°54.365 15.968893 4.029072 31.685679 22.242272
2004-06-03 11:35:21 51°14.583 2°54.388 15.951993 4.028545 31.688182 22.781623
2004-06-03 11:36:22 51°14.6 2°54.417 15.952722 4.028018 31.687717 22.747913
2004-06-03 11:37:22 51°14.617 2°54.448 15.94972 4.028018 31.688311 22.511947
2004-06-03 11:38:22 51°14.632 2°54.481 15.946373 4.027702 31.689102 22.444529
2004-06-03 11:39:21 51°14.646 2°54.515 15.945429 4.027807 31.689432 22.208563
2004-06-03 11:40:22 51°14.66 2°54.553 15.942254 4.027174 31.688043 22.141144
2004-06-03 11:41:22 51°14.673 2°54.591 15.938436 4.026964 31.687976 22.107435
2004-06-03 11:42:22 51°14.684 2°54.63 15.932343 4.026858 31.688239 21.938888
2004-06-03 11:43:22 51°14.696 2°54.669 15.940581 4.026226 31.683879 21.972597
2004-06-03 11:44:22 51°14.707 2°54.707 15.932858 4.026753 31.689097 21.938888
2004-06-03 11:45:26 51°14.719 2°54.748 15.937964 4.026226 31.686256 21.871469
2004-06-03 11:46:27 51°14.727 2°54.763 15.93968 4.026753 31.687909 21.938888
2004-06-03 11:47:27 51°14.697 2°54.547 15.94131 4.026964 31.686787 22.579366
2004-06-03 11:48:27 51°14.622 2°54.28 15.887013 4.023696 31.683074 23.961452
2004-06-03 11:49:27 51°14.517 2°54.028 15.904359 4.020111 31.662905 23.051298
2004-06-03 11:50:27 51°14.409 2°53.783 15.901525 4.011783 31.582684 23.186136
2004-06-03 11:51:27 51°14.302 2°53.533 15.918695 4.018635 31.642225 23.894033
2004-06-03 11:52:27 51°14.196 2°53.284 15.915047 4.018635 31.632132 22.781623
2004-06-03 11:53:27 51°14.091 2°53.034 15.928051 4.018108 31.617423 21.905178
2004-06-03 11:54:27 51°13.983 2°52.784 15.906333 4.015683 31.613352 22.95017
2004-06-03 11:55:27 51°13.885 2°52.524 15.913674 4.013891 31.603558 23.658067
2004-06-03 11:56:26 51°13.821 2°52.328 15.928266 4.01484 31.594686 23.051298
2004-06-03 11:57:28 51°13.832 2°52.235 15.95328 4.015156 31.584426 22.073725
2004-06-03 11:58:27 51°13.821 2°52.154 15.965848 4.015894 31.580831 22.275982
2004-06-03 11:59:27 51°13.765 2°52.287 15.972839 4.017896 31.578858 21.905178
2004-06-03 12:00:26 51°13.848 2°52.568 15.973654 4.017369 31.576606 21.972597
2004-06-03 12:01:27 51°13.969 2°52.929 16.135526 4.017264 31.583373 66.367879
2004-06-03 12:02:27 51°14.085 2°53.291 16.244623 4.016842 31.580269 62.255332
2004-06-03 12:03:27 51°14.187 2°53.66 16.344676 4.016842 31.578494 60.637281
2004-06-03 12:04:26 51°14.265 2°54.035 16.431761 4.016842 31.576719 59.120358
2004-06-03 12:05:33 51°14.355 2°54.467 16.525543 4.017053 31.575018 58.277623
2004-06-03 12:06:34 51°14.402 2°54.855 16.630751 4.017369 31.573649 57.974238